Архив погоды в Якутске

Метеограмма Якутск
Вторник, 25 Июня
Время местн. Темп Ветер Видим Явления Облачность нижн/средн/верх Атм. давл. Влжн Точка росы ВНГО R Сост. почвы Tg s
Напр Скр Прв ур.ст ур.м изм
03:00 +14.7° В,Ю-В 3 - 20 км небо без изменений {ливневые осадки} облачно 747 756 +0.3 93% +13.5° 600 м - - - -
00:00 +16.7° Ю-В 1 - 20 км ливневый дождь облачно 747 756 +0.3 93% +15.6° 600 м - - - -
Понедельник, 24 Июня
Время местн. Темп Ветер Видим Явления Облачность нижн/средн/верх Атм. давл. Влжн Точка росы ВНГО R Сост. почвы Tg s
Напр Скр Прв ур.ст ур.м изм
21:00 +19° Ю 1 - более 50 км ливневый дождь {гроза} облачно 747 756 +0.4 83% +16.1° 1 км 0 - - -
18:00 +20.9° Ю 4 - 50 км небо без изменений {гроза, ливневые осадки} облачно 746 755 +0.4 78% +17° 1 км - - - -
15:00 +21.4° Ю 3 - более 50 км гроза без осадков облачно 746 755 +0.2 72% +16.1° 1 км - - - -
12:00 +20.5° Ю-В 2 - 20 км - облачно 746 755 +0.2 79% +16.8° 1 км - - - -
09:00 +17.4° З,Ю-З 1 - 20 км - облачно 746 755 +0.2 87% +15.3° 600 м 0 Влажная (без луж) - -
06:00 +16.2° С-З 1 - более 50 км - облачно 746 754 +0.5 90% +14.5° 1 км - - - -
03:00 +15.9° С,С-З 1 - 50 км - облачно с прояснениями 745 754 +0.1 93% +14.7° 1 км - - - -
00:00 +16.8° З 1 - 50 км - облачно 745 754 -0.1 89% +15° 1 км - - - -
Воскресенье, 23 Июня
Время местн. Темп Ветер Видим Явления Облачность нижн/средн/верх Атм. давл. Влжн Точка росы ВНГО R Сост. почвы Tg s
Напр Скр Прв ур.ст ур.м изм
21:00 +18.4° З 3 - более 50 км небо без изменений {ливневые осадки} облачно 745 754 +0.7 88% +16.3° 1 км 1 - - -
18:00 +23.9° З 5 - 50 км - облачно 744 753 -0.2 62% +16.2° 1 км - - - -
15:00 +26.4° Ю-В 3 - 50 км - облачно 745 753 -1 38% +11.1° 1 км - - - -
12:00 +25.4° В 3 - 50 км - облачно 746 754 -0.9 49% +13.8° 1 км - - - -
09:00 +22.2° В 4 - 50 км - облачно 746 755 -0.3 70% +16.4° более 2.5 км 0 Сухая (без трещин) - -
06:00 +19° В,Ю-В 2 - более 50 км - облачно с прояснениями 747 756 +0.1 77% +14.8° более 2.5 км - - - -
03:00 +15.6° В,Ю-В 1 - 50 км - облачно 747 756 +0.1 82% +12.6° 1.5 км - - - -
00:00 +19.3° С,С-З 1 - более 50 км - облачно 747 755 -0.2 70% +13.8° 1.5 км - - - -
Суббота, 22 Июня
Время местн. Темп Ветер Видим Явления Облачность нижн/средн/верх Атм. давл. Влжн Точка росы ВНГО R Сост. почвы Tg s
Напр Скр Прв ур.ст ур.м изм
21:00 +25.9° В 2 - 50 км - облачно 747 755 +0.2 39% +10.8° 1.5 км 0 - - -
18:00 +27.7° В,Ю-В 1 - 50 км - облачно 747 755 -0.4 34% +10.2° 1.5 км - - - -
15:00 +27.3° В 2 - более 50 км - облачно с прояснениями 747 756 -1.1 35% +10.7° 1.5 км - - - -
12:00 +25.4° В 3 - 50 км - облачно 748 757 -0.8 42% +11.4° 1.5 км - - - -
09:00 +22.8° В 2 - более 50 км - облачно с прояснениями 749 758 +0.2 60% +14.6° более 2.5 км 0 Сухая (без трещин) +13° -
06:00 +19.5° В 1 - 50 км - облачно 749 757 +0.5 70% +13.9° более 2.5 км - - - -
03:00 +13.6° С 1 - более 50 км - облачно 748 757 +0.5 85% +11.2° более 2.5 км - - - -
00:00 +18.4° В,С-В 1 - более 50 км - облачно 748 757 +0.6 70% +12.9° 1.5 км - - - -